CPX233 Details

Departure: Sacramento International Airport (KSMF)
Arrival: Phoenix Sky Harbor International Airport (KPHX) at N/A
Route: SCTWN2 SCTWN DOSCO OAL LIDAT BTY J92 BLD PRFUM WOTRO BRUSR1
Notes:


Current Weather Information
KSMF 231353Z 00000KT 10SM CLR 11/07 A3000 RMK AO2 SLP159 T01110067
KPHX 231351Z 10005KT 10SM FEW050 17/00 A2991 RMK AO2 SLP114 FU FEW050 SE T01670000